Time;durP1;ratioP1;P1;durP2;ratioP2;P2;SDS_P1;SDS_P2;PMS_P1;PMS_P2;Temp;Humidity;BMP_temperature;BMP_pressure;BME280_temperature;BME280_humidity;BME280_pressure;Samples;Min_cycle;Max_cycle;Signal;HPM_P1;HPM_P2
2024/05/07 00:03:20;;;;;;;2.73;2.10;;;;;;;;;;11186207;26;20239;-84
2024/05/07 00:08:43;;;;;;;1.83;1.50;;;;;;;;;;11231181;26;20247;-84
2024/05/07 00:14:05;;;;;;;2.60;1.30;;;;;;;;;;11260227;26;20316;-84
2024/05/07 00:19:27;;;;;;;0.93;0.90;;;;;;;;;;11257835;26;20246;-84
2024/05/07 00:24:50;;;;;;;1.63;1.27;;;;;;;;;;11284587;26;20238;-84
2024/05/07 00:30:12;;;;;;;3.87;1.80;;;;;;;;;;11281360;26;20236;-84
2024/05/07 00:35:35;;;;;;;2.17;1.53;;;;;;;;;;11333754;26;20225;-84
2024/05/07 00:40:57;;;;;;;1.50;1.20;;;;;;;;;;11333904;26;20281;-85
2024/05/07 00:46:19;;;;;;;1.80;1.30;;;;;;;;;;11333701;26;20220;-84
2024/05/07 00:51:41;;;;;;;1.00;0.93;;;;;;;;;;11314623;26;20352;-84
2024/05/07 00:57:03;;;;;;;1.90;1.53;;;;;;;;;;11314638;26;20275;-84
2024/05/07 01:02:25;;;;;;;1.57;1.30;;;;;;;;;;11305747;26;20245;-84
2024/05/07 01:07:47;;;;;;;1.67;1.33;;;;;;;;;;11363494;26;20225;-84
2024/05/07 01:23:50;;;;;;;1.00;0.80;;;;;;;;;;11267412;26;20260;-84
2024/05/07 01:29:12;;;;;;;0.80;0.80;;;;;;;;;;11246507;26;20222;-84
2024/05/07 01:34:34;;;;;;;0.70;0.70;;;;;;;;;;11312623;26;20286;-84
2024/05/07 02:07:01;;;;;;;1.07;0.47;;;;;;;;;;11285821;26;20225;-84
2024/05/07 02:12:23;;;;;;;1.03;0.57;;;;;;;;;;11286018;26;20253;-84
2024/05/07 02:17:45;;;;;;;1.03;0.73;;;;;;;;;;11285393;26;20213;-84
2024/05/07 02:23:07;;;;;;;0.87;0.87;;;;;;;;;;11255357;26;20229;-84
2024/05/07 02:28:29;;;;;;;1.40;0.90;;;;;;;;;;11282107;26;20505;-83
2024/05/07 02:33:51;;;;;;;3.00;1.17;;;;;;;;;;11385436;26;20269;-84
2024/05/07 02:39:13;;;;;;;1.60;0.90;;;;;;;;;;11339572;26;20244;-84
2024/05/07 02:44:35;;;;;;;1.90;0.87;;;;;;;;;;11255205;26;20225;-84
2024/05/07 02:49:57;;;;;;;1.87;0.80;;;;;;;;;;11278277;26;20245;-84
2024/05/07 02:55:20;;;;;;;2.10;0.80;;;;;;;;;;11285091;26;20213;-84
2024/05/07 03:00:42;;;;;;;2.03;0.90;;;;;;;;;;11253547;26;20448;-85
2024/05/07 03:06:08;;;;;;;0.90;0.60;;;;;;;;;;11254372;26;20274;-85
2024/05/07 03:11:30;;;;;;;2.80;0.80;;;;;;;;;;11268618;26;20244;-84
2024/05/07 03:16:52;;;;;;;5.03;1.10;;;;;;;;;;11353903;26;20224;-84
2024/05/07 03:22:15;;;;;;;3.50;1.00;;;;;;;;;;11345505;26;20488;-85
2024/05/07 03:27:37;;;;;;;1.20;0.80;;;;;;;;;;11299257;26;20321;-85
2024/05/07 03:32:59;;;;;;;2.60;0.90;;;;;;;;;;11214036;26;20481;-84
2024/05/07 03:38:22;;;;;;;3.90;1.07;;;;;;;;;;11214173;26;20234;-85
2024/05/07 03:43:44;;;;;;;2.97;1.10;;;;;;;;;;11260722;26;20269;-85
2024/05/07 03:49:08;;;;;;;1.83;0.73;;;;;;;;;;11258597;26;20255;-84
2024/05/07 03:59:51;;;;;;;2.63;1.10;;;;;;;;;;11310421;26;20224;-84
2024/05/07 04:05:13;;;;;;;0.90;0.80;;;;;;;;;;11289531;26;20477;-84
2024/05/07 04:10:35;;;;;;;1.67;0.83;;;;;;;;;;11258914;26;20225;-84
2024/05/07 04:15:57;;;;;;;5.90;1.13;;;;;;;;;;11358393;26;20266;-84
2024/05/07 04:21:20;;;;;;;1.70;1.27;;;;;;;;;;11346941;26;20269;-84
2024/05/07 04:26:42;;;;;;;1.93;1.00;;;;;;;;;;11259182;26;20262;-85
2024/05/07 04:32:04;;;;;;;3.17;1.30;;;;;;;;;;11232314;26;20261;-84
2024/05/07 04:37:26;;;;;;;4.23;1.70;;;;;;;;;;11259020;26;20233;-84
2024/05/07 05:00:08;;;;;;;3.33;1.47;;;;;;;;;;11296329;26;20236;-83
2024/05/07 05:05:32;;;;;;;2.97;1.47;;;;;;;;;;11288138;26;20234;-84
2024/05/07 05:10:57;;;;;;;2.30;1.33;;;10.00;99.90;;;;;;11288001;26;20261;-84
2024/05/07 05:16:18;;;;;;;6.33;1.33;;;10.00;1.00;;;;;;11232895;26;20415;-84
2024/05/07 05:21:40;;;;;;;1.60;1.50;;;10.00;1.00;;;;;;11250891;26;20236;-84
2024/05/07 05:27:02;;;;;;;2.50;1.63;;;10.10;1.00;;;;;;11308209;26;20405;-84
2024/05/07 05:32:23;;;;;;;4.17;1.73;;;10.20;1.00;;;;;;11236382;26;20260;-82
2024/05/07 05:37:45;;;;;;;2.63;1.63;;;10.20;1.00;;;;;;11216613;26;20275;-84
2024/05/07 05:43:10;;;;;;;2.90;1.60;;;10.10;1.00;;;;;;11182655;26;20286;-84
2024/05/07 05:48:32;;;;;;;1.90;1.37;;;10.30;1.00;;;;;;11283930;26;20279;-84
2024/05/07 05:53:54;;;;;;;8.17;1.90;;;10.40;1.00;;;;;;11286411;26;20223;-84
2024/05/07 06:04:39;;;;;;;5.57;2.13;;;10.50;1.00;;;;;;11306884;26;20220;-84
2024/05/07 06:10:01;;;;;;;3.87;1.80;;;10.70;99.90;;;;;;11324473;26;20372;-84
2024/05/07 06:15:23;;;;;;;4.13;1.57;;;11.20;99.90;;;;;;11320738;26;20230;-83
2024/05/07 06:20:48;;;;;;;3.10;1.80;;;11.20;99.90;;;;;;11316316;26;20232;-84
2024/05/07 06:26:10;;;;;;;3.57;2.60;;;11.70;99.90;;;;;;11290540;26;20336;-84
2024/05/07 06:31:32;;;;;;;3.83;3.07;;;11.80;99.90;;;;;;11210290;26;20266;-84
2024/05/07 06:36:54;;;;;;;4.13;2.13;;;12.20;98.00;;;;;;11263532;26;20264;-84
2024/05/07 06:42:16;;;;;;;4.63;2.70;;;12.80;39.10;;;;;;11360000;26;20349;-84
2024/05/07 06:47:38;;;;;;;4.32;2.75;;;13.50;26.20;;;;;;11311863;26;20353;-84
2024/05/07 06:53:00;;;;;;;7.15;3.13;;;14.50;1.00;;;;;;11283993;26;20457;-84
2024/05/07 06:58:21;;;;;;;5.32;2.42;;;15.30;1.00;;;;;;11263973;26;20285;-84
2024/05/07 07:03:43;;;;;;;3.47;1.85;;;15.90;1.00;;;;;;11285968;26;20466;-83
2024/05/07 07:09:07;;;;;;;3.55;2.20;;;16.40;1.00;;;;;;11221925;26;20355;-84
2024/05/07 07:14:28;;;;;;;2.40;1.73;;;16.80;1.00;;;;;;11191902;26;20271;-83
2024/05/07 07:19:51;;;;;;;5.57;1.90;;;16.80;1.00;;;;;;11293381;26;20238;-87
2024/05/07 07:25:13;;;;;;;5.95;2.10;;;17.30;1.00;;;;;;11089869;26;20275;-83
2024/05/07 07:30:35;;;;;;;1.92;1.60;;;17.40;1.00;;;;;;11159144;26;20902;-83
2024/05/07 07:35:58;;;;;;;2.08;1.52;;;17.90;1.00;;;;;;11131341;26;20253;-85
2024/05/07 07:41:21;;;;;;;2.72;1.40;;;18.50;1.00;;;;;;11155913;26;20533;-82
2024/05/07 07:46:42;;;;;;;1.63;1.50;;;;;;;;;;11128578;26;20464;-83
2024/05/07 07:52:04;;;;;;;5.07;1.75;;;18.40;28.60;;;;;;11230384;26;20319;-86
2024/05/07 07:57:26;;;;;;;7.82;2.15;;;18.90;1.00;;;;;;11157220;26;20239;-85
2024/05/07 08:02:47;;;;;;;2.35;1.70;;;19.30;1.00;;;;;;11087177;26;20234;-85
2024/05/07 08:08:09;;;;;;;3.13;1.90;;;19.70;1.00;;;;;;11094530;26;20349;-87
2024/05/07 08:13:31;;;;;;;3.15;1.67;;;;;;;;;;11156778;26;20318;-88
2024/05/07 08:18:53;;;;;;;2.70;1.50;;;;;;;;;;11091896;26;20466;-85
2024/05/07 08:24:15;;;;;;;5.40;1.60;;;20.30;99.90;;;;;;11080538;26;20275;-86
2024/05/07 08:29:36;;;;;;;3.78;1.60;;;;;;;;;;11122577;26;20272;-86
2024/05/07 08:34:58;;;;;;;4.45;1.75;;;19.60;1.00;;;;;;11191397;26;20256;-86
2024/05/07 08:40:20;;;;;;;2.78;2.20;;;;;;;;;;11154837;26;20407;-85
2024/05/07 08:45:43;;;;;;;3.05;1.75;;;19.10;1.00;;;;;;11156852;26;20281;-84
2024/05/07 08:51:06;;;;;;;2.08;1.40;;;20.30;99.90;;;;;;11157842;26;20323;-85
2024/05/07 08:56:29;;;;;;;2.50;1.92;;;;;;;;;;11134381;26;20304;-83
2024/05/07 09:01:54;;;;;;;3.53;1.73;;;;;;;;;;11157902;26;20373;-89
2024/05/07 09:07:15;;;;;;;4.65;1.52;;;20.40;99.90;;;;;;11158911;26;20295;-85
2024/05/07 09:12:37;;;;;;;2.80;1.85;;;19.90;99.90;;;;;;11157194;26;20470;-82
2024/05/07 09:18:02;;;;;;;3.35;1.98;;;20.40;99.90;;;;;;11132815;26;20233;-84
2024/05/07 09:23:24;;;;;;;10.95;2.90;;;20.30;99.90;;;;;;11112606;26;20542;-87
2024/05/07 09:28:46;;;;;;;4.30;2.67;;;20.10;99.90;;;;;;11195486;26;20290;-81
2024/05/07 09:34:12;;;;;;;2.72;2.10;;;20.70;99.90;;;;;;11175938;26;20221;-81
2024/05/07 09:39:49;;;;;;;2.45;1.73;;;21.40;99.90;;;;;;11204602;26;20217;-83
2024/05/07 09:45:17;;;;;;;3.15;1.38;;;22.40;99.90;;;;;;11199277;26;20233;-82
2024/05/07 09:50:39;;;;;;;1.38;1.20;;;22.20;99.90;;;;;;11261612;26;20237;-86
2024/05/07 09:56:02;;;;;;;3.17;1.33;;;22.10;99.90;;;;;;11201761;26;20220;-85
2024/05/07 10:01:24;;;;;;;3.30;2.28;;;20.90;99.90;;;;;;11131183;26;20499;-82
2024/05/07 10:06:54;;;;;;;3.20;1.50;;;19.80;99.90;;;;;;11204877;26;20309;-81
2024/05/07 10:12:20;;;;;;;4.55;1.65;;;19.30;99.90;;;;;;11203907;26;20314;-82
2024/05/07 10:17:44;;;;;;;1.48;1.33;;;19.30;99.90;;;;;;11228334;26;20224;-82
2024/05/07 10:23:07;;;;;;;1.77;1.30;;;19.10;99.90;;;;;;11231005;26;20356;-84
2024/05/07 10:28:29;;;;;;;3.55;1.52;;;19.60;99.90;;;;;;11128515;26;20252;-82
2024/05/07 10:33:51;;;;;;;3.08;1.70;;;20.80;99.90;;;;;;11166922;26;20236;-81
2024/05/07 10:39:13;;;;;;;2.28;1.48;;;21.50;99.90;;;;;;11165916;26;20237;-82
2024/05/07 10:44:35;;;;;;;2.22;1.52;;;22.00;99.90;;;;;;11228628;26;20304;-84
2024/05/07 10:49:58;;;;;;;3.15;1.83;;;21.60;99.90;;;;;;11200732;26;20519;-84
2024/05/07 10:55:20;;;;;;;4.70;1.65;;;21.30;99.90;;;;;;11143043;26;20236;-78
2024/05/07 11:00:41;;;;;;;3.08;1.40;;;21.20;99.90;;;;;;11223078;26;20225;-82
2024/05/07 11:06:04;;;;;;;1.38;1.20;;;20.60;99.90;;;;;;11169029;26;20241;-83
2024/05/07 11:11:26;;;;;;;3.20;1.30;;;21.20;99.90;;;;;;11163731;26;20741;-83
2024/05/07 11:16:53;;;;;;;5.05;1.27;;;21.40;99.90;;;;;;11201486;26;20221;-88
2024/05/07 11:22:15;;;;;;;5.03;1.60;;;21.70;99.90;;;;;;11102296;26;20284;-86
2024/05/07 11:27:37;;;;;;;4.28;1.38;;;21.50;99.90;;;;;;11185796;26;20225;-88
2024/05/07 11:33:22;;;;;;;1.80;1.40;;;21.00;99.90;;;;;;11226243;26;20229;-86
2024/05/07 11:39:04;;;;;;;4.95;1.80;;;21.30;99.90;;;;;;11178278;26;20232;-86
2024/05/07 11:44:46;;;;;;;2.72;1.63;;;21.60;99.90;;;;;;11219248;26;20229;-87
2024/05/07 11:50:28;;;;;;;2.00;1.50;;;21.90;99.90;;;;;;11210235;26;20224;-88
2024/05/07 11:56:12;;;;;;;4.35;1.75;;;22.20;99.90;;;;;;11225917;26;20244;-85
2024/05/07 12:01:53;;;;;;;3.78;1.52;;;22.00;99.90;;;;;;11198870;26;20220;-86
2024/05/07 12:07:39;;;;;;;3.10;1.88;;;22.10;99.90;;;;;;11147405;26;20293;-84
2024/05/07 12:13:20;;;;;;;3.92;1.40;;;21.70;99.90;;;;;;11157524;26;20293;-83
2024/05/07 12:19:02;;;;;;;5.07;1.95;;;21.70;99.90;;;;;;11175988;26;20229;-88
2024/05/07 12:30:43;;;;;;;1.70;1.35;;;21.30;99.90;;;;;;11158039;26;20230;-82
2024/05/07 12:36:26;;;;;;;2.92;1.55;;;21.10;99.90;;;;;;11153792;26;20566;-83
2024/05/07 12:42:08;;;;;;;1.63;1.52;;;21.10;99.90;;;;;;11158269;26;20821;-82
2024/05/07 12:47:49;;;;;;;4.80;1.98;;;21.00;99.90;;;;;;11157842;26;20237;-87
2024/05/07 12:53:31;;;;;;;2.33;2.10;;;20.80;99.90;;;;;;11149633;26;20218;-81
2024/05/07 12:59:13;;;;;;;4.68;1.55;;;20.90;99.90;;;;;;11140546;26;20225;-94
2024/05/07 13:04:54;;;;;;;1.55;1.30;;;20.70;99.90;;;;;;11170774;26;20237;-88
2024/05/07 13:10:35;;;;;;;5.68;1.60;;;20.80;99.90;;;;;;11210982;26;20257;-90
2024/05/07 13:16:19;;;;;;;1.50;1.40;;;20.60;99.90;;;;;;11215943;26;20233;-93
2024/05/07 13:22:01;;;;;;;3.42;1.85;;;20.50;99.90;;;;;;11208036;26;20266;-92
2024/05/07 13:27:42;;;;;;;2.40;1.70;;;20.30;99.90;;;;;;11255599;26;20244;-91
2024/05/07 13:33:24;;;;;;;4.00;1.90;;;20.10;99.90;;;;;;11260730;26;20241;-90
2024/05/07 13:39:05;;;;;;;7.85;1.98;;;20.00;99.90;;;;;;11191030;26;20221;-91
2024/05/07 13:44:47;;;;;;;3.38;1.75;;;19.90;99.90;;;;;;11227747;26;20236;-91
2024/05/07 14:14:06;;;;;;;6.10;3.17;;;19.10;99.90;;;;;;10746906;27;20260;-84
2024/05/07 14:19:47;;;;;;;4.20;1.92;;;19.10;99.90;;;;;;10755694;27;20216;-90
2024/05/07 14:26:06;;;;;;;5.82;1.73;;;19.00;99.90;;;;;;10767711;27;20229;-91
2024/05/07 14:31:49;;;;;;;4.45;1.55;;;18.60;99.90;;;;;;10829066;27;20247;-84
2024/05/07 14:37:42;;;;;;;2.67;1.60;;;18.50;99.90;;;;;;10782883;27;20260;-85
2024/05/07 14:43:23;;;;;;;4.00;2.63;;;18.60;99.90;;;;;;10778405;27;20244;-89
2024/05/07 14:49:05;;;;;;;4.40;1.83;;;18.40;99.90;;;;;;10731143;27;20232;-91
2024/05/07 14:54:46;;;;;;;3.08;2.30;;;18.30;99.90;;;;;;10795093;27;20247;-86
2024/05/07 15:00:27;;;;;;;2.75;1.85;;;18.20;99.90;;;;;;10787961;27;20289;-91
2024/05/07 15:06:11;;;;;;;3.03;1.60;;;18.00;99.90;;;;;;10791038;27;20462;-86
2024/05/07 15:11:52;;;;;;;2.47;1.45;;;17.80;99.90;;;;;;10812243;27;20497;-85
2024/05/07 15:17:34;;;;;;;5.97;1.90;;;17.60;99.90;;;;;;10835533;27;20543;-86
2024/05/07 15:30:23;;;;;;;4.65;1.30;;;17.30;99.90;;;;;;10801342;27;20246;-85
2024/05/07 15:36:06;;;;;;;5.20;2.80;;;17.10;99.90;;;;;;10815162;27;20227;-87
2024/05/07 15:41:47;;;;;;;3.42;2.00;;;17.00;99.90;;;;;;10779167;27;20290;-86
2024/05/07 15:47:29;;;;;;;2.90;2.08;;;16.80;99.90;;;;;;10863632;27;20228;-86
2024/05/07 15:53:10;;;;;;;2.65;1.77;;;16.40;99.90;;;;;;10863336;27;20272;-86
2024/05/07 15:59:09;;;;;;;4.35;1.65;;;16.40;99.90;;;;;;10854163;27;20476;-85
2024/05/07 16:04:56;;;;;;;2.33;1.90;;;16.30;99.90;;;;;;10882986;27;20463;-85
2024/05/07 16:10:38;;;;;;;5.50;2.10;;;16.20;99.90;;;;;;10814160;27;20256;-85
2024/05/07 16:16:20;;;;;;;4.97;1.77;;;16.20;99.90;;;;;;10804032;27;20236;-85
2024/05/07 16:22:01;;;;;;;1.23;1.13;;;16.00;99.90;;;;;;10856000;27;20240;-85
2024/05/07 16:27:43;;;;;;;2.22;1.70;;;15.70;99.90;;;;;;10829750;27;20482;-85
2024/05/07 16:33:24;;;;;;;3.50;1.75;;;15.80;99.90;;;;;;10835509;27;20240;-85
2024/05/07 16:39:06;;;;;;;2.83;1.65;;;15.70;99.90;;;;;;10872958;27;20245;-84
2024/05/07 16:44:47;;;;;;;2.67;1.38;;;15.60;99.90;;;;;;10789851;27;20229;-85
2024/05/07 16:50:28;;;;;;;4.45;2.20;;;15.60;99.90;;;;;;10784283;27;20481;-85
2024/05/07 16:56:10;;;;;;;5.28;2.05;;;15.60;99.90;;;;;;10862413;27;20225;-86
2024/05/07 17:01:51;;;;;;;2.70;1.88;;;15.50;99.90;;;;;;10834232;27;20237;-84
2024/05/07 17:07:33;;;;;;;3.13;1.88;;;15.40;99.90;;;;;;10861759;27;20276;-86
2024/05/07 17:18:56;;;;;;;1.98;1.40;;;15.00;99.90;;;;;;10782058;27;20491;-85
2024/05/07 17:24:37;;;;;;;5.03;1.90;;;14.80;99.90;;;;;;10684659;27;20227;-86
2024/05/07 17:30:20;;;;;;;2.33;1.83;;;14.70;99.90;;;;;;10759178;27;20242;-86
2024/05/07 17:36:06;;;;;;;2.22;1.73;;;14.40;99.90;;;;;;10811466;27;20266;-86
2024/05/07 17:41:47;;;;;;;6.40;1.60;;;14.30;99.90;;;;;;10800189;27;20241;-86
2024/05/07 17:47:28;;;;;;;5.70;2.10;;;14.00;99.90;;;;;;10690289;27;20234;-85
2024/05/07 17:53:10;;;;;;;3.20;2.05;;;13.80;99.90;;;;;;10788394;27;20287;-86
2024/05/07 17:58:51;;;;;;;2.95;2.17;;;13.60;99.90;;;;;;10808332;27;20239;-85
2024/05/07 18:04:32;;;;;;;2.67;2.33;;;13.40;99.90;;;;;;10674669;27;20218;-85
2024/05/07 18:10:14;;;;;;;10.65;4.53;;;13.40;99.90;;;;;;10716808;27;20419;-85
2024/05/07 18:15:56;;;;;;;9.40;5.00;;;13.30;99.90;;;;;;10795013;27;20223;-85
2024/05/07 18:21:37;;;;;;;8.40;4.40;;;13.10;99.90;;;;;;10868724;27;20258;-85
2024/05/07 18:27:19;;;;;;;3.33;2.80;;;13.00;99.90;;;;;;10831731;27;20472;-85
2024/05/07 18:33:00;;;;;;;3.17;2.47;;;12.90;99.90;;;;;;10859041;27;20251;-84
2024/05/07 18:38:42;;;;;;;4.75;3.30;;;12.80;99.90;;;;;;10843341;27;20239;-85
2024/05/07 18:44:23;;;;;;;10.35;5.28;;;12.70;99.90;;;;;;10876834;27;20275;-85
2024/05/07 18:50:05;;;;;;;6.35;4.47;;;12.60;99.90;;;;;;10783295;27;20237;-85
2024/05/07 18:55:49;;;;;;;7.60;4.88;;;12.50;99.90;;;;;;10790023;27;20219;-85
2024/05/07 19:01:30;;;;;;;10.48;5.78;;;12.30;99.90;;;;;;10789623;27;20470;-85
2024/05/07 19:07:12;;;;;;;11.27;5.07;;;12.30;99.90;;;;;;10835661;27;20245;-85
2024/05/07 19:12:53;;;;;;;6.25;4.72;;;12.20;99.90;;;;;;10794038;27;20266;-84
2024/05/07 19:18:34;;;;;;;4.57;3.58;;;12.00;99.90;;;;;;10832819;27;20390;-85
2024/05/07 19:24:15;;;;;;;10.50;5.93;;;11.80;99.90;;;;;;10825594;27;20246;-84
2024/05/07 19:29:59;;;;;;;11.63;6.93;;;11.70;99.90;;;;;;10805271;27;20276;-86
2024/05/07 19:35:41;;;;;;;14.93;8.45;;;11.60;99.90;;;;;;10768419;27;20250;-85
2024/05/07 19:41:23;;;;;;;18.73;10.00;;;11.60;99.90;;;;;;10788014;27;20263;-85
2024/05/07 19:47:04;;;;;;;18.10;7.80;;;11.50;99.90;;;;;;10804531;27;20246;-85
2024/05/07 19:52:48;;;;;;;8.50;4.55;;;11.40;99.90;;;;;;10807288;27;20462;-84
2024/05/07 19:58:32;;;;;;;7.10;4.03;;;11.40;99.90;;;;;;10763935;27;20282;-85
2024/05/07 20:04:15;;;;;;;5.17;3.63;;;11.20;99.90;;;;;;10808713;27;20223;-85
2024/05/07 20:09:38;;;;;;;7.07;3.60;;;11.10;99.90;;;;;;10783598;27;20576;-85
2024/05/07 20:14:59;;;;;;;6.93;3.80;;;10.90;99.90;;;;;;10790167;27;20241;-84
2024/05/07 20:20:21;;;;;;;6.40;3.93;;;10.80;99.90;;;;;;10807982;27;20280;-85
2024/05/07 20:25:45;;;;;;;7.20;4.60;;;10.70;99.90;;;;;;10778702;27;20286;-85
2024/05/07 20:31:08;;;;;;;7.43;5.07;;;10.70;1.00;;;;;;10789593;27;20284;-85
2024/05/07 20:36:29;;;;;;;6.93;5.63;;;10.60;1.00;;;;;;10761732;27;20287;-86
2024/05/07 20:41:51;;;;;;;6.60;4.47;;;;;;;;;;10784972;27;20248;-86
2024/05/07 20:47:13;;;;;;;8.03;5.03;;;;;;;;;;10814444;27;20346;-85
2024/05/07 20:52:38;;;;;;;7.17;4.37;;;;;;;;;;10786827;27;20247;-86
2024/05/07 20:58:03;;;;;;;8.27;5.43;;;;;;;;;;10842823;27;20252;-85
2024/05/07 21:03:25;;;;;;;7.57;5.40;;;;;;;;;;10836889;27;20339;-85
2024/05/07 21:08:46;;;;;;;7.67;5.10;;;;;;;;;;10807911;27;20262;-85
2024/05/07 21:14:08;;;;;;;8.60;4.73;;;;;;;;;;10764127;27;20242;-86
2024/05/07 21:19:30;;;;;;;7.17;4.37;;;10.10;99.90;;;;;;10802811;27;20519;-84
2024/05/07 21:24:52;;;;;;;14.87;8.87;;;;;;;;;;10852363;27;20232;-85
2024/05/07 21:30:15;;;;;;;10.03;6.67;;;9.80;1.00;;;;;;10781219;27;20291;-85
2024/05/07 21:35:41;;;;;;;7.33;4.63;;;9.80;1.00;;;;;;10801188;27;20271;-85
2024/05/07 21:41:03;;;;;;;10.83;5.03;;;9.90;55.60;;;;;;10760641;27;20249;-85
2024/05/07 21:46:24;;;;;;;8.20;4.90;;;9.80;96.00;;;;;;10830393;27;20250;-83
2024/05/07 21:52:10;;;;;;;11.53;6.70;;;9.70;99.90;;;;;;10725532;27;20407;-85
2024/05/07 21:57:32;;;;;;;10.43;6.10;;;;;;;;;;10771969;27;20379;-85
2024/05/07 22:02:54;;;;;;;8.40;5.87;;;9.40;99.90;;;;;;10760497;27;20230;-85
2024/05/07 22:08:16;;;;;;;10.57;5.77;;;9.40;99.90;;;;;;10849656;27;20290;-84
2024/05/07 22:13:37;;;;;;;10.30;6.53;;;9.30;99.90;;;;;;10851042;27;20368;-85
2024/05/07 22:18:59;;;;;;;11.83;6.20;;;9.30;1.00;;;;;;10810003;27;20513;-83
2024/05/07 22:24:20;;;;;;;12.77;7.03;;;9.10;1.00;;;;;;10781300;27;20322;-84
2024/05/07 22:29:42;;;;;;;12.90;6.80;;;9.10;99.90;;;;;;10758372;27;20262;-85
2024/05/07 22:35:05;;;;;;;14.10;8.53;;;9.10;99.90;;;;;;10785656;27;20285;-85
2024/05/07 22:40:27;;;;;;;15.03;9.17;;;9.10;99.90;;;;;;10876372;27;20289;-83
2024/05/07 22:45:51;;;;;;;15.10;8.47;;;;;;;;;;10878563;27;20334;-84
2024/05/07 22:51:15;;;;;;;11.27;7.70;;;;;;;;;;10764341;27;20246;-83
2024/05/07 22:56:39;;;;;;;13.20;7.40;;;9.50;1.00;;;;;;10770900;27;20249;-84
2024/05/07 23:02:00;;;;;;;10.07;6.77;;;9.40;1.00;;;;;;10763073;27;20472;-83
2024/05/07 23:07:22;;;;;;;10.63;7.23;;;;;;;;;;10794652;27;20318;-84
2024/05/07 23:12:44;;;;;;;12.23;6.67;;;;;;;;;;10762577;27;20272;-84
2024/05/07 23:18:06;;;;;;;15.17;8.47;;;;;;;;;;10770107;27;20328;-84
2024/05/07 23:23:29;;;;;;;25.43;12.57;;;8.40;1.00;;;;;;10783958;27;20233;-84
2024/05/07 23:28:50;;;;;;;13.93;9.63;;;8.30;1.00;;;;;;10714032;27;20241;-84
2024/05/07 23:34:12;;;;;;;14.67;9.67;;;8.10;1.00;;;;;;10695321;27;20265;-84
2024/05/07 23:39:34;;;;;;;13.17;7.50;;;8.10;1.00;;;;;;10736927;27;20279;-84
2024/05/07 23:44:55;;;;;;;12.87;8.13;;;8.00;1.00;;;;;;10746755;27;20231;-84
2024/05/07 23:50:18;;;;;;;12.43;7.60;;;;;;;;;;10715272;27;20232;-84
2024/05/07 23:55:42;;;;;;;13.70;7.00;;;7.80;1.00;;;;;;10678436;27;20311;-84
